createdAt,value
2023-01-18T00:01:11.106Z,98301.06
2023-01-18T00:03:40.169Z,98292.13
2023-01-18T00:06:09.676Z,98287.19
2023-01-18T00:08:39.264Z,98293.06
2023-01-18T00:11:12.787Z,98291.16
2023-01-18T00:13:40.930Z,98288.94
2023-01-18T00:16:13.326Z,98283.56
2023-01-18T00:18:41.346Z,98285.41
2023-01-18T00:21:11.791Z,98277.56
2023-01-18T00:23:39.615Z,98289.94
2023-01-18T00:26:10.082Z,98284.69
2023-01-18T00:28:39.015Z,98283.09
2023-01-18T00:31:16.090Z,98282.16
2023-01-18T00:33:45.258Z,98270.81
2023-01-18T00:36:14.428Z,98271.19
2023-01-18T00:38:42.664Z,98269.22
2023-01-18T00:41:10.670Z,98264.63
2023-01-18T00:43:41.116Z,98269.41
2023-01-18T00:46:21.450Z,98265.84
2023-01-18T00:48:50.059Z,98266.22
2023-01-18T00:51:24.061Z,98256.72
2023-01-18T00:53:52.090Z,98263.97
2023-01-18T00:56:21.943Z,98248.06
2023-01-18T00:58:49.816Z,98248.91
2023-01-18T01:01:17.922Z,98249.28
2023-01-18T01:04:04.146Z,98241.13
2023-01-18T01:06:45.514Z,98241.53
2023-01-18T01:09:24.633Z,98228.06
2023-01-18T01:12:12.517Z,98219.00
2023-01-18T01:15:02.270Z,98220.03
2023-01-18T01:17:51.396Z,98222.81
2023-01-18T01:20:37.928Z,98225.59
2023-01-18T01:23:33.443Z,98220.41
2023-01-18T01:26:08.246Z,98219.31
2023-01-18T01:28:38.011Z,98223.41
2023-01-18T01:31:08.511Z,98226.78
2023-01-18T01:33:36.845Z,98228.25
2023-01-18T01:36:07.784Z,98222.69
2023-01-18T01:38:35.818Z,98207.56
2023-01-18T01:41:09.008Z,98211.94
2023-01-18T01:43:42.508Z,98208.09
2023-01-18T01:46:21.178Z,98209.22
2023-01-18T01:48:49.614Z,98212.69
2023-01-18T01:51:20.673Z,98210.78
2023-01-18T01:53:49.603Z,98218.25
2023-01-18T01:56:20.036Z,98228.91
2023-01-18T01:58:55.544Z,98233.72
2023-01-18T02:01:23.573Z,98236.66
2023-01-18T02:03:51.677Z,98231.09
2023-01-18T02:06:31.216Z,98238.03
2023-01-18T02:09:01.746Z,98232.00
2023-01-18T02:11:29.948Z,98235.94
2023-01-18T02:14:02.622Z,98236.09
2023-01-18T02:16:52.077Z,98227.38
2023-01-18T02:19:47.748Z,98226.09
2023-01-18T02:22:42.163Z,98242.06
2023-01-18T02:25:50.297Z,98237.59
2023-01-18T02:28:40.378Z,98237.94
2023-01-18T02:31:17.487Z,98232.78
2023-01-18T02:34:02.711Z,98232.22
2023-01-18T02:36:50.850Z,98225.56
2023-01-18T02:40:05.293Z,98232.69
2023-01-18T02:42:56.513Z,98228.47
2023-01-18T02:45:50.975Z,98222.53
2023-01-18T02:48:22.815Z,98216.47
2023-01-18T02:50:51.923Z,98217.81
2023-01-18T02:53:20.228Z,98211.56
2023-01-18T02:55:56.792Z,98211.13
2023-01-18T02:58:48.046Z,98205.06
2023-01-18T03:01:38.372Z,98202.66
2023-01-18T03:04:22.609Z,98195.13
2023-01-18T03:06:57.592Z,98188.38
2023-01-18T03:09:27.366Z,98175.41
2023-01-18T03:11:55.001Z,98183.13
2023-01-18T03:14:47.704Z,98174.56
2023-01-18T03:17:36.541Z,98165.72
2023-01-18T03:20:11.757Z,98171.09
2023-01-18T03:23:11.607Z,98153.59
2023-01-18T03:25:43.522Z,98153.38
2023-01-18T03:28:32.098Z,98146.50
2023-01-18T03:31:22.898Z,98141.56
2023-01-18T03:33:57.009Z,98134.94
2023-01-18T03:36:37.399Z,98130.88
2023-01-18T03:39:13.207Z,98119.91
2023-01-18T03:41:46.492Z,98118.66
2023-01-18T03:44:37.138Z,98113.84
2023-01-18T03:47:07.649Z,98110.47
2023-01-18T03:49:36.149Z,98099.97
2023-01-18T03:52:21.536Z,98093.56
2023-01-18T03:55:04.308Z,98094.75
2023-01-18T03:57:35.397Z,98089.22
2023-01-18T04:00:06.102Z,98073.97
2023-01-18T04:02:40.808Z,98069.75
2023-01-18T04:05:09.405Z,98051.25
2023-01-18T04:07:37.419Z,98052.09
2023-01-18T04:10:05.475Z,98052.41
2023-01-18T04:12:35.065Z,98037.31
2023-01-18T04:15:03.998Z,98021.09
2023-01-18T04:17:31.997Z,98022.78
2023-01-18T04:19:59.698Z,98025.00
2023-01-18T04:22:28.144Z,98031.19
2023-01-18T04:24:55.826Z,98030.28
2023-01-18T04:27:25.276Z,98027.72
2023-01-18T04:29:53.044Z,98042.25
2023-01-18T04:32:20.940Z,98042.41
2023-01-18T04:34:48.556Z,98048.84
2023-01-18T04:37:16.521Z,98046.44
2023-01-18T04:39:44.423Z,98043.22
2023-01-18T04:42:12.421Z,98049.56
2023-01-18T04:44:40.139Z,98048.75
2023-01-18T04:47:08.202Z,98047.34
2023-01-18T04:49:35.843Z,98044.53
2023-01-18T04:52:03.941Z,98039.25
2023-01-18T04:54:31.793Z,98038.88
2023-01-18T04:56:59.719Z,98038.22
2023-01-18T04:59:28.462Z,98041.53
2023-01-18T05:01:56.409Z,98033.06
2023-01-18T05:04:24.083Z,98044.28
2023-01-18T05:06:52.041Z,98038.88
2023-01-18T05:09:20.116Z,98038.75
2023-01-18T05:11:48.248Z,98042.09
2023-01-18T05:14:16.060Z,98038.75
2023-01-18T05:16:44.083Z,98040.81
2023-01-18T05:19:11.897Z,98039.13
2023-01-18T05:21:39.827Z,98040.81
2023-01-18T05:24:07.682Z,98044.53
2023-01-18T05:26:36.427Z,98043.38
2023-01-18T05:29:04.397Z,98040.03
2023-01-18T05:31:32.587Z,98040.09
2023-01-18T05:34:00.267Z,98043.50
2023-01-18T05:36:28.303Z,98030.72
2023-01-18T05:38:56.173Z,98024.09
2023-01-18T05:41:24.087Z,98015.94
2023-01-18T05:43:51.757Z,98001.28
2023-01-18T05:46:19.782Z,98000.56
2023-01-18T05:48:47.390Z,97993.25
2023-01-18T05:51:15.392Z,97980.66
2023-01-18T05:53:43.057Z,97976.16
2023-01-18T05:56:11.118Z,97966.00
2023-01-18T05:58:39.009Z,97955.78
2023-01-18T06:01:09.799Z,97941.38
2023-01-18T06:03:37.501Z,97944.19
2023-01-18T06:06:05.622Z,97934.66
2023-01-18T06:08:34.020Z,97925.91
2023-01-18T06:11:02.522Z,97920.44
2023-01-18T06:13:31.607Z,97918.56
2023-01-18T06:16:01.099Z,97908.44
2023-01-18T06:18:31.321Z,97906.28
2023-01-18T06:21:01.868Z,97910.78
2023-01-18T06:23:30.637Z,97921.69
2023-01-18T06:25:58.995Z,97923.75
2023-01-18T06:28:29.081Z,97924.47
2023-01-18T06:30:58.720Z,97916.91
2023-01-18T06:33:26.526Z,97920.13
2023-01-18T06:35:54.469Z,97907.53
2023-01-18T06:38:22.184Z,97912.50
2023-01-18T06:40:50.062Z,97902.97
2023-01-18T06:43:17.738Z,97884.13
2023-01-18T06:45:52.371Z,97884.72
2023-01-18T06:48:20.211Z,97882.44
2023-01-18T06:50:49.066Z,97873.75
2023-01-18T06:53:16.722Z,97859.03
2023-01-18T06:55:53.981Z,97857.34
2023-01-18T06:58:21.642Z,97864.19
2023-01-18T07:00:49.961Z,97860.59
2023-01-18T07:03:17.698Z,97859.03
2023-01-18T07:05:46.736Z,97872.47
2023-01-18T07:08:14.815Z,97865.38
2023-01-18T07:10:42.836Z,97849.31
2023-01-18T07:13:10.440Z,97850.88
2023-01-18T07:15:38.476Z,97869.97
2023-01-18T07:18:06.193Z,97875.84
2023-01-18T07:20:34.164Z,97878.66
2023-01-18T07:23:02.646Z,97894.81
2023-01-18T07:25:30.622Z,97905.13
2023-01-18T07:27:58.809Z,97897.94
2023-01-18T07:30:26.813Z,97899.66
2023-01-18T07:32:54.582Z,97890.97
2023-01-18T07:35:22.938Z,97882.25
2023-01-18T07:37:53.178Z,97868.03
2023-01-18T07:40:22.235Z,97864.44
2023-01-18T07:42:57.102Z,97869.59
2023-01-18T07:45:25.241Z,97871.41
2023-01-18T07:47:53.489Z,97868.16
2023-01-18T07:50:24.544Z,97865.91
2023-01-18T07:52:52.290Z,97872.81
2023-01-18T07:55:21.695Z,97864.00
2023-01-18T07:57:49.423Z,97858.81
2023-01-18T08:00:17.729Z,97861.78
2023-01-18T08:02:50.030Z,97857.16
2023-01-18T08:05:21.213Z,97854.41
2023-01-18T08:07:49.845Z,97859.56
2023-01-18T08:10:18.319Z,97851.81
2023-01-18T08:12:46.181Z,97853.50
2023-01-18T08:15:14.733Z,97849.13
2023-01-18T08:17:43.446Z,97852.59
2023-01-18T08:20:11.816Z,97856.56
2023-01-18T08:22:39.631Z,97857.13
2023-01-18T08:25:07.903Z,97852.88
2023-01-18T08:27:35.574Z,97852.47
2023-01-18T08:30:03.749Z,97846.94
2023-01-18T08:32:31.451Z,97831.56
2023-01-18T08:35:00.514Z,97831.31
2023-01-18T08:37:28.811Z,97832.59
2023-01-18T08:39:56.714Z,97822.00
2023-01-18T08:42:24.437Z,97820.59
2023-01-18T08:44:53.947Z,97810.91
2023-01-18T08:47:21.595Z,97806.19
2023-01-18T08:49:49.552Z,97827.44
2023-01-18T08:52:17.266Z,97823.75
2023-01-18T08:54:45.209Z,97824.72
2023-01-18T08:57:13.112Z,97840.34
2023-01-18T08:59:41.104Z,97850.69
2023-01-18T09:02:11.349Z,97846.44
2023-01-18T09:04:39.538Z,97840.72
2023-01-18T09:07:07.329Z,97847.41
2023-01-18T09:09:35.292Z,97850.28
2023-01-18T09:12:05.550Z,97848.03
2023-01-18T09:14:33.523Z,97843.50
2023-01-18T09:17:01.825Z,97821.22
2023-01-18T09:19:29.991Z,97829.88
2023-01-18T09:21:57.615Z,97836.59
2023-01-18T09:24:25.645Z,97837.31
2023-01-18T09:26:53.828Z,97823.53
2023-01-18T09:29:21.867Z,97816.53
2023-01-18T09:31:49.881Z,97810.13
2023-01-18T09:34:19.892Z,97799.78
2023-01-18T09:36:51.575Z,97790.63
2023-01-18T09:39:21.090Z,97779.97
2023-01-18T09:41:55.402Z,97783.59
2023-01-18T09:44:36.168Z,97780.16
2023-01-18T09:47:18.061Z,97785.25
2023-01-18T09:49:56.801Z,97768.03
2023-01-18T09:52:40.924Z,97758.47
2023-01-18T09:55:11.561Z,97763.75
2023-01-18T09:57:46.523Z,97764.47
2023-01-18T10:00:27.892Z,97780.53
2023-01-18T10:03:04.938Z,97779.91
2023-01-18T10:05:37.703Z,97783.00
2023-01-18T10:08:14.925Z,97791.09
2023-01-18T10:10:53.781Z,97785.69
2023-01-18T10:13:44.499Z,97769.22
2023-01-18T10:16:14.952Z,97768.22
2023-01-18T10:18:48.174Z,97757.34
2023-01-18T10:21:41.890Z,97763.44
2023-01-18T10:24:39.902Z,97780.53
2023-01-18T10:27:13.427Z,97789.84
2023-01-18T10:29:50.472Z,97788.47
2023-01-18T10:32:23.640Z,97786.19
2023-01-18T10:34:52.340Z,97781.38
2023-01-18T10:37:45.256Z,97758.13
2023-01-18T10:40:14.756Z,97745.75
2023-01-18T10:42:48.146Z,97740.38
2023-01-18T10:45:22.325Z,97742.41
2023-01-18T10:47:52.945Z,97750.50
2023-01-18T10:50:36.823Z,97750.78
2023-01-18T10:53:23.418Z,97748.69
2023-01-18T10:56:16.436Z,97734.50
2023-01-18T10:59:00.834Z,97724.94
2023-01-18T11:01:30.144Z,97710.13
2023-01-18T11:04:21.126Z,97702.31
2023-01-18T11:06:51.864Z,97709.91
2023-01-18T11:09:43.925Z,97700.00
2023-01-18T11:12:45.628Z,97708.25
2023-01-18T11:15:16.592Z,97691.03
2023-01-18T11:17:56.023Z,97690.94
2023-01-18T11:20:25.589Z,97690.44
2023-01-18T11:22:59.540Z,97687.50
2023-01-18T11:25:36.014Z,97689.66
2023-01-18T11:28:07.619Z,97689.03
2023-01-18T11:30:37.354Z,97703.16
2023-01-18T11:33:05.172Z,97707.53
2023-01-18T11:35:37.358Z,97718.22
2023-01-18T11:38:10.634Z,97716.88
2023-01-18T11:40:38.942Z,97717.69
2023-01-18T11:43:22.929Z,97715.88
2023-01-18T11:46:09.593Z,97718.38
2023-01-18T11:48:52.652Z,97723.41
2023-01-18T11:51:35.840Z,97733.66
2023-01-18T11:54:27.599Z,97730.47
2023-01-18T11:56:59.798Z,97721.31
2023-01-18T11:59:42.047Z,97728.16
2023-01-18T12:02:31.595Z,97721.59
2023-01-18T12:05:17.728Z,97711.81
2023-01-18T12:08:03.517Z,97714.59
2023-01-18T12:10:58.040Z,97709.78
2023-01-18T12:13:37.852Z,97709.75
2023-01-18T12:16:10.265Z,97716.50
2023-01-18T12:18:57.394Z,97717.41
2023-01-18T12:22:00.555Z,97714.19
2023-01-18T12:24:31.150Z,97714.13
2023-01-18T12:27:06.613Z,97723.88
2023-01-18T12:29:45.478Z,97722.28
2023-01-18T12:32:30.451Z,97717.97
2023-01-18T12:35:22.974Z,97707.56
2023-01-18T12:38:23.097Z,97703.19
2023-01-18T12:40:51.137Z,97709.75
2023-01-18T12:43:43.533Z,97715.38
2023-01-18T12:46:26.894Z,97712.78
2023-01-18T12:49:05.461Z,97726.47
2023-01-18T12:51:37.740Z,97727.44
2023-01-18T12:54:30.697Z,97732.81
2023-01-18T12:57:00.413Z,97753.22
2023-01-18T12:59:33.910Z,97753.69
2023-01-18T13:02:21.443Z,97758.41
2023-01-18T13:05:00.138Z,97761.97
2023-01-18T13:07:41.989Z,97767.19
2023-01-18T13:10:22.763Z,97757.84
2023-01-18T13:12:53.394Z,97762.31
2023-01-18T13:15:47.928Z,97766.38
2023-01-18T13:18:36.692Z,97775.16
2023-01-18T13:21:38.387Z,97772.81
2023-01-18T13:24:11.861Z,97777.13
2023-01-18T13:26:40.261Z,97772.81
2023-01-18T13:29:20.178Z,97778.03
2023-01-18T13:31:48.621Z,97782.44
2023-01-18T13:34:30.365Z,97781.59
2023-01-18T13:37:13.452Z,97778.63
2023-01-18T13:39:48.368Z,97786.06
2023-01-18T13:42:24.654Z,97783.78
2023-01-18T13:45:14.963Z,97782.28
2023-01-18T13:47:47.950Z,97787.84
2023-01-18T13:50:39.293Z,97795.66
2023-01-18T13:53:21.982Z,97802.03
2023-01-18T13:56:00.535Z,97806.13
2023-01-18T13:58:33.318Z,97798.03
2023-01-18T14:01:04.166Z,97807.94
2023-01-18T14:03:36.278Z,97807.56
2023-01-18T14:06:10.504Z,97806.66
2023-01-18T14:08:40.419Z,97815.06
2023-01-18T14:11:20.769Z,97817.25
2023-01-18T14:13:48.622Z,97822.41
2023-01-18T14:16:19.963Z,97825.19
2023-01-18T14:19:14.406Z,97819.44
2023-01-18T14:21:54.949Z,97830.91
2023-01-18T14:24:28.976Z,97826.50
2023-01-18T14:26:59.836Z,97822.50
2023-01-18T14:29:53.082Z,97835.63
2023-01-18T14:32:27.452Z,97831.81
2023-01-18T14:35:00.157Z,97835.28
2023-01-18T14:37:33.646Z,97836.50
2023-01-18T14:40:13.706Z,97848.84
2023-01-18T14:43:01.120Z,97847.81
2023-01-18T14:45:31.074Z,97853.13
2023-01-18T14:48:20.374Z,97855.47
2023-01-18T14:50:51.049Z,97876.19
2023-01-18T14:53:47.548Z,97876.97
2023-01-18T14:56:25.999Z,97887.19
2023-01-18T14:58:59.949Z,97888.09
2023-01-18T15:01:39.302Z,97887.00
2023-01-18T15:04:28.825Z,97895.78
2023-01-18T15:07:07.771Z,97904.69
2023-01-18T15:09:38.518Z,97908.94
2023-01-18T15:12:10.537Z,97917.84
2023-01-18T15:14:44.694Z,97923.13
2023-01-18T15:17:21.497Z,97926.38
2023-01-18T15:19:55.675Z,97939.94
2023-01-18T15:22:29.699Z,97946.66
2023-01-18T15:24:59.857Z,97955.31
2023-01-18T15:27:33.577Z,97960.66
2023-01-18T15:30:02.812Z,97963.25
2023-01-18T15:32:34.035Z,97965.94
2023-01-18T15:35:03.144Z,97973.13
2023-01-18T15:37:39.743Z,97965.75
2023-01-18T15:40:13.708Z,97974.34
2023-01-18T15:43:09.401Z,97976.69
2023-01-18T15:45:40.116Z,97987.97
2023-01-18T15:48:13.568Z,97993.13
2023-01-18T15:50:45.891Z,98001.53
2023-01-18T15:53:25.825Z,98013.66
2023-01-18T15:55:59.664Z,98021.84
2023-01-18T15:58:39.316Z,98031.44
2023-01-18T16:01:15.935Z,98034.19
2023-01-18T16:03:49.144Z,98037.66
2023-01-18T16:06:32.385Z,98056.63
2023-01-18T16:09:12.790Z,98072.84
2023-01-18T16:12:00.347Z,98074.59
2023-01-18T16:14:31.341Z,98087.00
2023-01-18T16:17:08.520Z,98087.84
2023-01-18T16:19:51.614Z,98095.34
2023-01-18T16:22:25.693Z,98097.72
2023-01-18T16:24:57.752Z,98103.94
2023-01-18T16:27:28.378Z,98109.16
2023-01-18T16:29:59.726Z,98099.94
2023-01-18T16:32:31.702Z,98132.28
2023-01-18T16:35:01.251Z,98139.44
2023-01-18T16:37:30.741Z,98141.25
2023-01-18T16:39:58.661Z,98136.59
2023-01-18T16:42:37.719Z,98143.88
2023-01-18T16:45:12.873Z,98146.19
2023-01-18T16:47:40.815Z,98157.00
2023-01-18T16:50:16.360Z,98161.91
2023-01-18T16:52:47.344Z,98170.63
2023-01-18T16:55:16.057Z,98180.53
2023-01-18T16:57:45.052Z,98182.31
2023-01-18T17:00:22.852Z,98181.91
2023-01-18T17:02:51.812Z,98185.00
2023-01-18T17:05:19.785Z,98183.19
2023-01-18T17:07:47.971Z,98193.19
2023-01-18T17:10:38.871Z,98191.66
2023-01-18T17:13:06.817Z,98210.09
2023-01-18T17:15:34.888Z,98215.25
2023-01-18T17:18:04.278Z,98224.69
2023-01-18T17:20:32.544Z,98229.66
2023-01-18T17:23:01.456Z,98238.38
2023-01-18T17:25:29.409Z,98235.09
2023-01-18T17:27:58.444Z,98241.84
2023-01-18T17:30:27.035Z,98249.25
2023-01-18T17:32:55.612Z,98252.69
2023-01-18T17:35:24.986Z,98262.53
2023-01-18T17:38:00.728Z,98271.34
2023-01-18T17:40:40.849Z,98280.13
2023-01-18T17:43:17.318Z,98292.72
2023-01-18T17:46:00.500Z,98292.41
2023-01-18T17:48:30.096Z,98302.00
2023-01-18T17:50:58.729Z,98307.28
2023-01-18T17:53:27.044Z,98312.22
2023-01-18T17:55:54.803Z,98315.25
2023-01-18T17:58:22.770Z,98325.91
2023-01-18T18:00:50.548Z,98325.78
2023-01-18T18:03:18.866Z,98336.84
2023-01-18T18:05:46.556Z,98345.16
2023-01-18T18:08:14.595Z,98345.53
2023-01-18T18:10:43.773Z,98351.44
2023-01-18T18:13:11.736Z,98359.44
2023-01-18T18:15:44.960Z,98364.72
2023-01-18T18:18:22.763Z,98363.91
2023-01-18T18:21:02.270Z,98376.00
2023-01-18T18:23:30.991Z,98378.00
2023-01-18T18:25:59.511Z,98379.69
2023-01-18T18:28:29.602Z,98374.13
2023-01-18T18:30:58.100Z,98385.78
2023-01-18T18:33:27.844Z,98394.66
2023-01-18T18:35:55.943Z,98395.06
2023-01-18T18:38:24.163Z,98401.31
2023-01-18T18:40:52.276Z,98409.94
2023-01-18T18:43:21.058Z,98417.13
2023-01-18T18:45:49.180Z,98425.75
2023-01-18T18:48:17.154Z,98447.13
2023-01-18T18:50:46.726Z,98447.81
2023-01-18T18:53:16.057Z,98461.56
2023-01-18T18:55:45.190Z,98478.75
2023-01-18T18:58:13.511Z,98482.03
2023-01-18T19:00:41.210Z,98484.75
2023-01-18T19:03:09.690Z,98495.81
2023-01-18T19:05:37.607Z,98500.91
2023-01-18T19:08:05.602Z,98509.16
2023-01-18T19:10:33.911Z,98518.16
2023-01-18T19:13:04.376Z,98520.78
2023-01-18T19:15:32.217Z,98528.41
2023-01-18T19:18:00.344Z,98538.63
2023-01-18T19:20:28.131Z,98536.22
2023-01-18T19:22:56.154Z,98536.69
2023-01-18T19:25:23.856Z,98559.63
2023-01-18T19:27:51.724Z,98561.53
2023-01-18T19:30:19.539Z,98570.97
2023-01-18T19:32:50.844Z,98563.91
2023-01-18T19:35:20.300Z,98583.50
2023-01-18T19:37:49.355Z,98584.72
2023-01-18T19:40:17.388Z,98581.41
2023-01-18T19:42:47.105Z,98586.97
2023-01-18T19:45:23.213Z,98593.09
2023-01-18T19:47:56.637Z,98593.50
2023-01-18T19:50:24.827Z,98604.31
2023-01-18T19:52:52.925Z,98605.84
2023-01-18T19:55:21.719Z,98609.13
2023-01-18T19:57:52.246Z,98616.25
2023-01-18T20:00:20.364Z,98618.81
2023-01-18T20:02:48.466Z,98624.78
2023-01-18T20:05:16.370Z,98630.88
2023-01-18T20:07:44.437Z,98624.03
2023-01-18T20:10:12.211Z,98631.47
2023-01-18T20:12:40.459Z,98637.44
2023-01-18T20:15:08.529Z,98649.88
2023-01-18T20:17:36.649Z,98651.69
2023-01-18T20:20:04.791Z,98669.41
2023-01-18T20:22:32.936Z,98681.50
2023-01-18T20:25:00.812Z,98695.63
2023-01-18T20:27:28.854Z,98691.91
2023-01-18T20:29:58.384Z,98705.28
2023-01-18T20:32:26.440Z,98708.16
2023-01-18T20:34:54.155Z,98713.28
2023-01-18T20:37:22.355Z,98717.31
2023-01-18T20:39:50.330Z,98725.78
2023-01-18T20:42:18.517Z,98736.34
2023-01-18T20:44:49.236Z,98736.69
2023-01-18T20:47:17.271Z,98743.38
2023-01-18T20:49:47.052Z,98756.31
2023-01-18T20:52:15.037Z,98757.25
2023-01-18T20:54:42.800Z,98753.38
2023-01-18T20:57:10.880Z,98763.09
2023-01-18T20:59:38.705Z,98761.56
2023-01-18T21:02:06.928Z,98764.09
2023-01-18T21:04:34.775Z,98782.97
2023-01-18T21:07:02.723Z,98778.50
2023-01-18T21:09:30.408Z,98799.00
2023-01-18T21:11:58.685Z,98807.69
2023-01-18T21:14:26.342Z,98819.94
2023-01-18T21:16:54.336Z,98846.19
2023-01-18T21:19:22.104Z,98850.53
2023-01-18T21:21:50.039Z,98853.84
2023-01-18T21:24:17.716Z,98849.72
2023-01-18T21:26:45.651Z,98838.34
2023-01-18T21:29:13.358Z,98840.28
2023-01-18T21:31:41.321Z,98824.63
2023-01-18T21:34:09.384Z,98818.59
2023-01-18T21:36:37.372Z,98814.28
2023-01-18T21:39:05.486Z,98816.84
2023-01-18T21:41:52.251Z,98823.63
2023-01-18T21:44:38.437Z,98832.19
2023-01-18T21:47:06.353Z,98838.34
2023-01-18T21:52:59.409Z,98858.16
2023-01-18T21:55:27.198Z,98882.06
2023-01-18T21:58:13.814Z,98887.00
2023-01-18T22:00:42.293Z,98909.31
2023-01-18T22:03:10.239Z,98916.41
2023-01-18T22:05:40.781Z,98928.28
2023-01-18T22:08:09.887Z,98935.34
2023-01-18T22:10:37.588Z,98954.13
2023-01-18T22:13:05.529Z,98950.72
2023-01-18T22:15:33.173Z,98941.59
2023-01-18T22:18:01.745Z,98942.44
2023-01-18T22:20:30.986Z,98945.69
2023-01-18T22:22:59.718Z,98947.28
2023-01-18T22:25:27.416Z,98957.66
2023-01-18T22:27:55.312Z,98967.09
2023-01-18T22:30:23.045Z,98981.00
2023-01-18T22:32:51.021Z,98974.22
2023-01-18T22:35:18.890Z,98974.91
2023-01-18T22:37:46.825Z,98973.28
2023-01-18T22:40:14.537Z,98979.41
2023-01-18T22:42:42.463Z,98974.13
2023-01-18T22:45:10.577Z,98977.69
2023-01-18T22:47:38.480Z,98980.22
2023-01-18T22:50:06.627Z,98978.97
2023-01-18T22:52:34.613Z,98982.59
2023-01-18T22:55:02.331Z,98983.34
2023-01-18T22:57:30.418Z,98974.84
2023-01-18T22:59:58.108Z,98981.63
2023-01-18T23:02:26.002Z,98991.22
2023-01-18T23:04:54.473Z,98992.97
2023-01-18T23:07:22.428Z,98990.88
2023-01-18T23:09:51.425Z,98998.66
2023-01-18T23:12:19.444Z,99009.03
2023-01-18T23:15:05.536Z,99012.56
2023-01-18T23:17:39.478Z,99025.63
2023-01-18T23:20:10.479Z,99023.19
2023-01-18T23:22:38.748Z,99021.56
2023-01-18T23:25:06.964Z,99029.13
2023-01-18T23:27:34.891Z,99030.94
2023-01-18T23:30:02.700Z,99025.03
2023-01-18T23:32:30.810Z,99048.81
2023-01-18T23:35:00.008Z,99059.84
2023-01-18T23:37:28.325Z,99067.13
2023-01-18T23:40:15.039Z,99063.47
2023-01-18T23:43:02.061Z,99075.72
2023-01-18T23:45:48.319Z,99079.00
2023-01-18T23:48:37.379Z,99091.56
2023-01-18T23:51:25.010Z,99090.84
2023-01-18T23:54:13.218Z,99101.16
2023-01-18T23:56:40.943Z,99119.50
2023-01-18T23:59:09.037Z,99130.41
